Main page
METAR-TAF:

METAR-TAF

Airports :

Yangon International Airport

Yangon, Myanmar

latitude: 16-46N, longitude: 096-10E, elevation: 14 m

Current weather observation

The report was made 22 minutes ago, at 19:00 UTC
Wind 2 kt from the South/Southwest
Temperature 26°C
Humidity 100%
Pressure 1006 hPa
Visibility: 6000 m
Broken clouds at a height of 1500 ft
Few clouds at a height of 1800 ft, Cumulonimbus.
Overcast at a height of 10000 ft

METAR: VYYY 161900Z 21002KT 6000 BKN015 FEW018CB OVC100 26/26 Q1006

Time: 01:52 (19:22 UTC)

Forecast

The report was made 2 hours and 22 minutes ago, at 17:00 UTC
Forecast valid from 16 at 18 UTC to 17 at 18 UTC
Wind 6 kt from the South
Visibility: 7000 m
Broken clouds at a height of 1300 ft
Few clouds at a height of 1800 ft, Cumulonimbus.
Broken clouds at a height of 10000 ft
Temporary
from 16 at 18 UTC to 16 at 24 UTC
Visibility: 5000 m
light rain

TAF: VYYY 161700Z 1618/1718 18006KT 7000 BKN013 FEW018CB BKN100 TEMPO 1618/1624 5000 -RA

Weather observations and forecasts of more than 4000 airports (METAR and TAF reports).

The available stations are represented by yellow and red dots on the map.

Hover mouse over dot to see the name of the station.

Then click to see weather observations and forecasts.

To change the map : click on the green buttons with a black cross to zoom in, on the green button with a dash to zoom out, or on the green arrows for adjacent maps.


METAR-TAF: